Time;durP1;ratioP1;P1;durP2;ratioP2;P2;SDS_P1;SDS_P2;PMS_P1;PMS_P2;Temp;Humidity;BMP_temperature;BMP_pressure;BME280_temperature;BME280_humidity;BME280_pressure;Samples;Min_cycle;Max_cycle;Signal;HPM_P1;HPM_P2
2023/01/24 00:00:32;;;;;;;;;36.25;27.25;;;;;6.46;100.00;103134.97;5006171;28;45308;-71
2023/01/24 00:02:58;;;;;;;;;16.25;13.25;;;;;6.48;100.00;103154.34;5012936;28;53554;-70
2023/01/24 00:05:23;;;;;;;;;23.00;14.00;;;;;6.47;100.00;103157.78;5008735;28;61902;-69
2023/01/24 00:07:48;;;;;;;;;24.50;18.25;;;;;6.47;100.00;103150.81;5010669;28;49561;-70
2023/01/24 00:10:14;;;;;;;;;20.75;18.25;;;;;6.48;100.00;103156.97;5004002;28;56514;-71
2023/01/24 00:12:39;;;;;;;;;24.75;19.00;;;;;6.48;100.00;103151.72;4999909;28;45515;-71
2023/01/24 00:15:05;;;;;;;;;24.00;21.75;;;;;6.49;100.00;103158.78;5009697;28;60138;-70
2023/01/24 00:17:30;;;;;;;;;25.00;17.00;;;;;6.47;100.00;103157.78;5007085;28;45356;-71
2023/01/24 00:19:56;;;;;;;;;19.25;18.00;;;;;6.46;100.00;103155.97;5015591;28;52461;-71
2023/01/24 00:22:21;;;;;;;;;26.25;21.50;;;;;6.45;100.00;103151.53;5015870;28;49917;-71
2023/01/24 00:24:48;;;;;;;;;26.50;23.75;;;;;6.47;100.00;103149.91;5012571;28;60434;-71
2023/01/24 00:27:13;;;;;;;;;58.25;42.25;;;;;6.48;100.00;103144.75;5013752;28;45502;-70
2023/01/24 00:29:39;;;;;;;;;29.75;22.25;;;;;6.46;100.00;103149.00;5013690;28;45341;-70
2023/01/24 00:32:04;;;;;;;;;28.75;20.75;;;;;6.49;100.00;103146.56;5003281;28;45348;-70
2023/01/24 00:34:30;;;;;;;;;28.75;20.50;;;;;6.48;100.00;103138.59;5010500;28;46718;-70
2023/01/24 00:36:55;;;;;;;;;30.25;20.75;;;;;6.49;100.00;103140.41;5014247;28;45360;-70
2023/01/24 00:39:20;;;;;;;;;22.75;16.25;;;;;6.47;100.00;103134.16;5010793;28;53612;-71
2023/01/24 00:41:46;;;;;;;;;20.75;18.25;;;;;6.44;100.00;103137.47;5004457;28;54790;-71
2023/01/24 00:44:11;;;;;;;;;28.25;21.00;;;;;6.45;100.00;103138.41;4991482;28;52422;-70
2023/01/24 00:46:37;;;;;;;;;22.00;17.75;;;;;6.43;100.00;103140.00;5007213;28;45352;-70
2023/01/24 00:49:02;;;;;;;;;26.25;18.75;;;;;6.43;100.00;103142.63;5004017;28;45448;-70
2023/01/24 00:51:29;;;;;;;;;28.75;22.75;;;;;6.42;100.00;103138.19;5002751;28;46456;-70
2023/01/24 00:53:54;;;;;;;;;30.00;19.75;;;;;6.42;100.00;103140.81;5010564;28;46067;-70
2023/01/24 00:56:19;;;;;;;;;7.75;7.50;;;;;6.44;100.00;103144.44;5009482;28;57073;-71
2023/01/24 00:58:45;;;;;;;;;25.00;22.00;;;;;6.45;100.00;103141.03;5009172;28;45498;-72
2023/01/24 01:01:10;;;;;;;;;21.75;20.75;;;;;6.46;100.00;103143.75;5003263;28;54113;-70
2023/01/24 01:03:35;;;;;;;;;31.00;23.00;;;;;6.47;100.00;103145.56;5007139;28;45598;-68
2023/01/24 01:06:07;;;;;;;;;32.00;21.25;;;;;6.46;100.00;103146.38;5007884;28;61101;-70
2023/01/24 01:08:32;;;;;;;;;27.25;20.75;;;;;6.43;100.00;103142.63;5004209;28;45329;-70
2023/01/24 01:10:58;;;;;;;;;25.50;19.50;;;;;6.43;100.00;103143.53;5000487;28;45498;-71
2023/01/24 01:13:24;;;;;;;;;25.00;20.50;;;;;6.44;100.00;103139.19;4979240;28;45582;-70
2023/01/24 01:15:49;;;;;;;;;23.25;21.00;;;;;6.43;100.00;103134.75;4985210;28;45857;-71
2023/01/24 01:18:14;;;;;;;;;22.25;19.25;;;;;6.40;100.00;103139.84;5011919;28;45369;-71
2023/01/24 01:20:40;;;;;;;;;24.75;21.25;;;;;6.41;100.00;103144.25;5003843;28;53292;-70
2023/01/24 01:23:05;;;;;;;;;32.25;24.75;;;;;6.42;100.00;103146.97;5001214;28;45732;-70
2023/01/24 01:25:31;;;;;;;;;33.25;22.50;;;;;6.42;100.00;103144.34;5011540;28;45446;-71
2023/01/24 01:27:56;;;;;;;;;28.50;21.75;;;;;6.43;100.00;103153.13;5016114;28;46346;-71
2023/01/24 01:30:21;;;;;;;;;20.25;15.00;;;;;6.42;100.00;103149.59;5003270;28;56446;-69
2023/01/24 01:32:47;;;;;;;;;25.25;18.75;;;;;6.39;100.00;103151.09;5008636;28;46489;-70
2023/01/24 01:35:12;;;;;;;;;18.25;15.75;;;;;6.40;100.00;103152.94;5003098;28;54663;-71
2023/01/24 01:37:38;;;;;;;;;20.75;17.25;;;;;6.38;100.00;103163.31;5011071;28;47271;-71
2023/01/24 01:40:04;;;;;;;;;31.50;19.75;;;;;6.37;100.00;103155.34;5004038;28;52521;-71
2023/01/24 01:42:52;;;;;;;;;28.50;20.50;;;;;6.42;100.00;103160.09;5001818;28;45750;-72
2023/01/24 01:45:37;;;;;;;;;28.50;23.50;;;;;6.42;100.00;103152.22;5004925;28;45565;-73
2023/01/24 01:48:22;;;;;;;;;29.25;20.00;;;;;6.42;100.00;103154.84;5010854;28;45325;-70
2023/01/24 01:50:53;;;;;;;;;24.75;22.25;;;;;6.43;100.00;103161.91;4996595;28;45520;-70
2023/01/24 01:53:18;;;;;;;;;26.75;17.75;;;;;6.41;100.00;103154.75;4992734;28;46820;-69
2023/01/24 01:55:49;;;;;;;;;33.25;20.75;;;;;6.42;100.00;103161.81;5005558;28;52843;-72
2023/01/24 01:58:15;;;;;;;;;25.75;20.00;;;;;6.39;100.00;103157.28;5003999;28;45357;-70
2023/01/24 02:00:49;;;;;;;;;29.25;23.25;;;;;6.36;100.00;103167.56;4982406;28;45242;-70
2023/01/24 02:06:02;;;;;;;;;33.00;18.25;;;;;6.38;100.00;103167.66;5012616;28;45578;-71
2023/01/24 02:08:28;;;;;;;;;33.25;24.50;;;;;6.38;100.00;103172.91;4992302;28;45449;-69
2023/01/24 02:13:39;;;;;;;;;28.50;21.25;;;;;6.36;100.00;103156.19;4999616;28;45373;-72
2023/01/24 02:16:06;;;;;;;;;52.25;36.50;;;;;6.36;100.00;103166.66;5004753;28;45355;-70
2023/01/24 02:18:37;;;;;;;;;27.50;16.00;;;;;6.35;100.00;103157.91;5000160;28;45482;-70
2023/01/24 02:21:04;;;;;;;;;28.50;20.75;;;;;6.35;100.00;103163.13;5001900;28;45380;-70
2023/01/24 02:23:33;;;;;;;;;29.50;21.00;;;;;6.32;100.00;103167.28;4990446;28;45601;-71
2023/01/24 02:26:12;;;;;;;;;27.75;21.50;;;;;6.31;100.00;103166.38;5003434;28;45362;-70
2023/01/24 02:28:46;;;;;;;;;30.75;25.50;;;;;6.30;100.00;103173.31;4985829;28;45572;-70
2023/01/24 02:31:11;;;;;;;;;27.25;19.00;;;;;6.30;100.00;103168.09;4986310;28;45376;-70
2023/01/24 02:33:36;;;;;;;;;27.00;21.25;;;;;6.32;100.00;103169.91;5009836;28;48523;-71
2023/01/24 02:36:30;;;;;;;;;22.50;16.25;;;;;6.30;100.00;103168.09;5005664;28;61263;-72
2023/01/24 02:39:04;;;;;;;;;27.25;18.75;;;;;6.28;100.00;103163.53;4997962;28;45250;-69
2023/01/24 02:41:44;;;;;;;;;36.50;23.25;;;;;6.28;100.00;103174.97;5001241;28;45382;-71
2023/01/24 02:44:13;;;;;;;;;21.50;17.25;;;;;6.27;100.00;103169.59;5015450;28;45930;-70
2023/01/24 02:46:38;;;;;;;;;22.50;16.25;;;;;6.26;100.00;103158.19;4984716;28;45329;-70
2023/01/24 02:49:08;;;;;;;;;31.00;21.00;;;;;6.27;100.00;103161.72;5007140;28;45368;-70
2023/01/24 02:54:17;;;;;;;;;26.50;22.00;;;;;6.27;100.00;103170.50;5015864;28;45510;-73
2023/01/24 02:59:26;;;;;;;;;29.75;24.00;;;;;6.27;100.00;103162.63;5007978;28;45558;-70
2023/01/24 03:01:52;;;;;;;;;27.25;24.00;;;;;6.24;100.00;103158.91;5012983;28;45990;-73
2023/01/24 03:04:17;;;;;;;;;26.00;21.25;;;;;6.25;100.00;103160.72;5015180;28;62964;-70
2023/01/24 03:06:43;;;;;;;;;24.25;22.00;;;;;6.22;100.00;103164.03;5009758;28;45532;-70
2023/01/24 03:09:18;;;;;;;;;31.00;23.25;;;;;6.23;100.00;103165.88;5013349;28;45742;-72
2023/01/24 03:11:47;;;;;;;;;33.25;27.75;;;;;6.23;100.00;103162.31;5012826;28;45549;-70
2023/01/24 03:36:06;;;;;;;;;19.50;17.75;;;;;6.13;100.00;103159.91;5011338;28;45425;-71
2023/01/24 03:41:15;;;;;;;;;30.75;20.75;;;;;6.10;100.00;103160.59;5002305;28;45482;-73
2023/01/24 03:43:41;;;;;;;;;39.25;31.00;;;;;6.08;100.00;103164.84;5007594;28;53593;-70
2023/01/24 03:46:06;;;;;;;;;28.50;17.50;;;;;6.09;100.00;103157.88;5005406;28;46243;-70
2023/01/24 03:48:36;;;;;;;;;36.25;26.50;;;;;6.10;100.00;103164.94;5008554;28;54338;-72
2023/01/24 03:53:46;;;;;;;;;33.25;25.50;;;;;6.12;100.00;103161.59;5006372;28;45371;-72
2023/01/24 03:56:11;;;;;;;;;27.50;21.50;;;;;6.12;100.00;103164.22;5010995;28;57148;-72
2023/01/24 03:58:36;;;;;;;;;24.50;19.00;;;;;6.11;100.00;103156.25;5001711;28;45612;-71
2023/01/24 04:01:02;;;;;;;;;27.25;18.50;;;;;6.12;100.00;103169.47;5006985;28;54990;-73
2023/01/24 04:03:27;;;;;;;;;28.25;23.25;;;;;6.12;100.00;103158.06;5013056;28;45611;-73
2023/01/24 04:05:53;;;;;;;;;25.25;19.25;;;;;6.12;100.00;103160.69;4996205;28;65027;-72
2023/01/24 04:08:18;;;;;;;;;26.00;20.75;;;;;6.12;100.00;103164.22;5001199;28;45358;-71
2023/01/24 04:10:44;;;;;;;;;37.50;26.00;;;;;6.12;100.00;103156.34;5013110;28;45430;-74
2023/01/24 04:13:10;;;;;;;;;31.25;25.50;;;;;6.11;100.00;103153.63;5008327;28;45492;-73
2023/01/24 04:15:35;;;;;;;;;30.00;22.50;;;;;6.11;100.00;103149.31;5008287;28;45547;-70
2023/01/24 04:18:02;;;;;;;;;20.25;20.25;;;;;6.13;100.00;103149.44;5015187;28;45447;-70
2023/01/24 04:20:31;;;;;;;;;32.50;21.50;;;;;6.11;100.00;103151.03;5002424;28;45536;-73
2023/01/24 04:23:00;;;;;;;;;26.00;21.25;;;;;6.11;100.00;103161.50;5008093;28;45353;-71
2023/01/24 04:25:25;;;;;;;;;25.25;21.75;;;;;6.09;100.00;103161.41;5010733;28;46527;-72
2023/01/24 04:27:50;;;;;;;;;26.00;21.25;;;;;6.07;100.00;103155.13;4999710;28;45335;-72
2023/01/24 04:30:16;;;;;;;;;25.50;21.25;;;;;6.10;100.00;103157.97;5011594;28;54072;-72
2023/01/24 04:32:42;;;;;;;;;22.25;20.50;;;;;6.11;100.00;103156.25;5009380;28;45362;-72
2023/01/24 04:35:09;;;;;;;;;30.00;22.25;;;;;6.10;100.00;103155.34;5012536;28;46472;-72
2023/01/24 04:37:34;;;;;;;;;30.75;21.00;;;;;6.10;100.00;103157.97;4978778;28;45439;-73
2023/01/24 04:40:01;;;;;;;;;47.00;27.00;;;;;6.09;100.00;103158.78;5013757;28;56800;-72
2023/01/24 04:42:26;;;;;;;;;33.50;22.25;;;;;6.09;100.00;103160.50;5014412;28;45567;-72
2023/01/24 04:44:51;;;;;;;;;27.50;20.75;;;;;6.09;100.00;103160.50;5005055;28;47304;-72
2023/01/24 04:47:17;;;;;;;;;25.25;20.25;;;;;6.07;100.00;103170.88;5012908;28;60360;-72
2023/01/24 04:49:42;;;;;;;;;39.50;31.00;;;;;6.02;100.00;103161.81;5005060;28;55278;-72
2023/01/24 04:52:11;;;;;;;;;32.75;25.75;;;;;6.02;100.00;103160.09;5000985;28;45322;-73
2023/01/24 04:54:40;;;;;;;;;27.00;25.25;;;;;6.02;100.00;103165.34;5004300;28;46561;-72
2023/01/24 04:57:07;;;;;;;;;22.25;20.50;;;;;6.03;100.00;103161.00;5015195;28;45374;-71
2023/01/24 04:59:32;;;;;;;;;37.50;27.25;;;;;6.01;100.00;103163.50;5004765;28;45328;-72
2023/01/24 05:01:57;;;;;;;;;30.75;22.25;;;;;5.99;100.00;103172.09;5006675;28;50551;-71
2023/01/24 05:04:23;;;;;;;;;28.75;25.25;;;;;6.00;100.00;103176.53;5001593;28;54872;-71
2023/01/24 05:06:48;;;;;;;;;30.00;28.00;;;;;6.01;100.00;103179.25;5001307;28;57633;-71
2023/01/24 05:09:13;;;;;;;;;36.50;25.00;;;;;5.98;100.00;103181.69;5005656;28;45524;-70
2023/01/24 05:11:39;;;;;;;;;37.75;28.25;;;;;5.99;100.00;103183.50;4986730;28;52722;-70
2023/01/24 05:14:04;;;;;;;;;40.25;30.00;;;;;5.98;100.00;103183.41;5005333;28;45612;-71
2023/01/24 05:16:30;;;;;;;;;34.75;23.75;;;;;5.98;100.00;103184.31;5008499;28;45497;-71
2023/01/24 05:18:55;;;;;;;;;37.25;28.25;;;;;5.98;100.00;103189.53;5004681;28;45798;-72
2023/01/24 05:21:20;;;;;;;;;30.50;27.00;;;;;6.00;100.00;103184.41;5007165;28;52486;-71
2023/01/24 05:23:51;;;;;;;;;38.50;29.50;;;;;6.02;100.00;103188.06;5002645;28;47921;-71
2023/01/24 05:26:17;;;;;;;;;32.50;27.50;;;;;6.03;100.00;103184.63;5002079;28;45488;-71
2023/01/24 05:28:42;;;;;;;;;47.25;35.25;;;;;6.01;100.00;103176.63;5004589;28;45929;-73
2023/01/24 05:31:08;;;;;;;;;33.25;24.25;;;;;6.03;100.00;103184.63;5003777;28;45452;-71
2023/01/24 05:33:34;;;;;;;;;25.50;18.50;;;;;6.02;100.00;103183.72;5000896;28;45605;-73
2023/01/24 05:36:11;;;;;;;;;27.50;19.25;;;;;6.02;100.00;103191.56;5015562;28;45528;-73
2023/01/24 05:38:37;;;;;;;;;30.75;25.00;;;;;6.00;100.00;103182.69;5004746;28;45563;-73
2023/01/24 05:41:06;;;;;;;;;26.25;25.50;;;;;5.99;100.00;103187.81;5003623;28;45722;-74
2023/01/24 05:43:31;;;;;;;;;26.00;25.25;;;;;6.01;100.00;103197.59;5004710;28;45468;-74
2023/01/24 05:46:17;;;;;;;;;29.50;25.25;;;;;5.99;100.00;103191.34;4987394;28;45386;-74
2023/01/24 05:48:44;;;;;;;;;43.50;29.75;;;;;5.99;100.00;103193.97;5004226;28;45523;-73
2023/01/24 05:51:11;;;;;;;;;31.50;24.75;;;;;6.00;100.00;103187.91;5016377;28;45350;-73
2023/01/24 05:53:38;;;;;;;;;37.25;28.25;;;;;6.01;100.00;103196.69;5009899;28;46494;-72
2023/01/24 05:56:06;;;;;;;;;28.25;20.75;;;;;5.98;100.00;103188.66;5003300;28;45408;-72
2023/01/24 05:58:36;;;;;;;;;34.00;26.25;;;;;5.97;100.00;103199.94;5006389;28;45379;-73
2023/01/24 06:01:05;;;;;;;;;33.75;26.75;;;;;5.96;100.00;103201.63;5003729;28;45359;-72
2023/01/24 06:03:31;;;;;;;;;31.00;24.75;;;;;5.94;100.00;103200.63;5003257;28;46644;-72
2023/01/24 06:05:56;;;;;;;;;35.50;28.00;;;;;5.97;100.00;103206.09;5002974;28;55659;-72
2023/01/24 06:08:21;;;;;;;;;28.75;24.00;;;;;5.99;100.00;103207.09;5009953;28;45381;-73
2023/01/24 06:10:47;;;;;;;;;30.75;24.00;;;;;6.00;100.00;103208.00;5013554;28;45615;-73
2023/01/24 06:13:13;;;;;;;;;37.25;27.75;;;;;6.01;100.00;103207.19;5012314;28;62949;-74
2023/01/24 06:15:39;;;;;;;;;33.75;29.25;;;;;5.99;100.00;103198.31;5013459;28;46722;-73
2023/01/24 06:18:05;;;;;;;;;32.00;24.50;;;;;6.04;100.00;103212.66;5013379;28;46559;-74
2023/01/24 06:20:32;;;;;;;;;36.00;22.00;;;;;6.03;100.00;103210.84;5010649;28;45548;-72
2023/01/24 06:23:04;;;;;;;;;32.25;22.25;;;;;6.02;100.00;103225.66;5000306;28;45704;-70
2023/01/24 06:25:30;;;;;;;;;38.75;28.25;;;;;6.01;100.00;103222.91;5012307;28;45528;-71
2023/01/24 06:27:56;;;;;;;;;33.75;22.50;;;;;6.00;100.00;103219.38;5011726;28;45641;-71
2023/01/24 06:30:21;;;;;;;;;34.00;25.25;;;;;6.00;100.00;103222.00;5018392;28;46323;-72
2023/01/24 06:33:15;;;;;;;;;32.75;22.75;;;;;5.98;100.00;103227.97;5011497;28;47213;-74
2023/01/24 06:36:01;;;;;;;;;40.75;26.75;;;;;5.98;100.00;103218.38;5011625;28;45338;-72
2023/01/24 06:38:27;;;;;;;;;22.50;20.75;;;;;5.96;100.00;103230.47;5017408;28;45468;-71
2023/01/24 06:40:55;;;;;;;;;34.25;28.00;;;;;5.95;100.00;103226.03;5015586;28;46356;-71
2023/01/24 06:43:21;;;;;;;;;37.00;26.75;;;;;5.95;100.00;103223.41;4989122;28;45349;-72
2023/01/24 06:45:47;;;;;;;;;29.25;26.00;;;;;5.95;100.00;103228.66;5011732;28;45468;-72
2023/01/24 06:48:12;;;;;;;;;23.00;17.00;;;;;5.95;100.00;103231.28;5009525;28;54386;-70
2023/01/24 06:50:37;;;;;;;;;36.25;30.50;;;;;5.95;100.00;103227.75;5016008;28;45499;-71
2023/01/24 06:53:03;;;;;;;;;36.00;27.75;;;;;5.95;100.00;103233.00;5017578;28;45739;-71
2023/01/24 06:55:29;;;;;;;;;39.25;30.25;;;;;5.98;100.00;103238.47;5009528;28;45473;-72
2023/01/24 06:57:56;;;;;;;;;41.00;29.75;;;;;5.97;100.00;103242.81;5014402;28;45389;-71
2023/01/24 07:00:21;;;;;;;;;37.75;30.00;;;;;5.96;100.00;103242.69;5013889;28;45576;-72
2023/01/24 07:02:46;;;;;;;;;31.25;24.25;;;;;5.95;100.00;103243.50;5015887;28;49706;-72
2023/01/24 07:05:12;;;;;;;;;37.75;25.25;;;;;5.94;100.00;103231.19;5007232;28;45527;-72
2023/01/24 07:07:38;;;;;;;;;32.25;27.75;;;;;5.93;100.00;103238.16;5011243;28;45407;-72
2023/01/24 07:12:34;;;;;;;;;39.50;30.75;;;;;5.90;100.00;103234.34;5028903;22;74465;-70
2023/01/24 07:14:59;;;;;;;;;36.00;29.00;;;;;5.91;100.00;103233.56;5008236;28;45605;-70
2023/01/24 07:17:25;;;;;;;;;31.25;24.75;;;;;5.92;100.00;103238.06;5008537;28;45913;-70
2023/01/24 07:19:50;;;;;;;;;33.75;26.75;;;;;5.96;100.00;103242.69;5011738;28;45528;-70
2023/01/24 07:22:16;;;;;;;;;41.25;26.50;;;;;5.97;100.00;103252.38;5000425;28;46677;-69
2023/01/24 07:24:43;;;;;;;;;39.25;30.00;;;;;6.00;100.00;103249.97;4994701;28;45571;-69
2023/01/24 07:27:08;;;;;;;;;39.50;29.25;;;;;5.97;100.00;103248.06;5012375;28;45471;-70
2023/01/24 07:29:33;;;;;;;;;34.00;24.50;;;;;5.99;100.00;103254.28;5014133;28;45508;-70
2023/01/24 07:31:59;;;;;;;;;43.00;34.00;;;;;5.99;100.00;103250.78;5006327;28;58947;-69
2023/01/24 07:34:24;;;;;;;;;45.25;32.25;;;;;5.93;100.00;103250.34;5014753;28;53916;-71
2023/01/24 07:36:49;;;;;;;;;46.00;25.75;;;;;5.96;100.00;103259.31;5015608;28;54574;-69
2023/01/24 07:39:15;;;;;;;;;42.25;30.75;;;;;5.96;100.00;103259.31;5010287;28;45264;-70
2023/01/24 07:41:43;;;;;;;;;34.50;26.00;;;;;5.96;100.00;103266.28;5010482;28;46774;-72
2023/01/24 07:44:09;;;;;;;;;44.75;26.00;;;;;5.95;100.00;103264.47;5010956;28;45363;-71
2023/01/24 07:46:35;;;;;;;;;36.00;28.50;;;;;5.93;100.00;103260.84;5011895;28;45449;-70
2023/01/24 07:49:01;;;;;;;;;28.50;24.00;;;;;5.96;100.00;103269.81;5004795;28;45566;-71
2023/01/24 07:51:27;;;;;;;;;45.00;32.75;;;;;5.96;100.00;103268.91;5005098;28;45481;-72
2023/01/24 07:53:53;;;;;;;;;34.25;30.25;;;;;5.95;100.00;103265.38;5006585;28;45519;-72
2023/01/24 07:56:18;;;;;;;;;35.00;25.00;;;;;5.96;100.00;103277.66;5009668;28;45199;-70
2023/01/24 07:58:44;;;;;;;;;36.50;28.25;;;;;5.93;100.00;103279.19;5026993;28;45581;-71
2023/01/24 08:01:09;;;;;;;;;31.75;23.75;;;;;5.93;100.00;103281.81;5028353;28;45486;-73
2023/01/24 08:03:34;;;;;;;;;42.50;33.50;;;;;5.95;100.00;103283.72;5014215;28;47845;-73
2023/01/24 08:06:02;;;;;;;;;34.50;27.75;;;;;5.97;100.00;103289.09;5008010;28;55717;-75
2023/01/24 08:08:27;;;;;;;;;40.00;30.50;;;;;6.00;100.00;103289.28;5008183;28;45609;-73
2023/01/24 08:10:52;;;;;;;;;32.25;25.00;;;;;5.98;100.00;103299.69;5013419;28;45654;-73
2023/01/24 08:13:18;;;;;;;;;32.75;28.75;;;;;6.01;100.00;103288.47;5014340;28;52690;-71
2023/01/24 08:15:43;;;;;;;;;41.25;30.50;;;;;6.00;100.00;103289.28;5014572;28;45628;-71
2023/01/24 08:18:09;;;;;;;;;33.75;27.00;;;;;6.01;100.00;103302.50;5006543;28;45482;-71
2023/01/24 08:20:34;;;;;;;;;32.50;21.75;;;;;5.99;100.00;103297.97;5027208;28;45590;-69
2023/01/24 08:22:59;;;;;;;;;35.50;24.75;;;;;6.01;100.00;103301.59;5010914;28;45439;-70
2023/01/24 08:25:25;;;;;;;;;33.00;25.75;;;;;6.01;100.00;103307.75;5007404;28;52772;-71
2023/01/24 08:27:51;;;;;;;;;37.25;28.25;;;;;5.99;100.00;103290.09;5008067;28;45456;-72
2023/01/24 08:30:16;;;;;;;;;43.25;30.25;;;;;6.00;100.00;103300.69;5005556;28;45825;-71
2023/01/24 08:32:42;;;;;;;;;33.25;25.50;;;;;6.06;100.00;103296.66;5005902;28;45371;-71
2023/01/24 08:35:08;;;;;;;;;33.00;25.75;;;;;6.06;100.00;103308.06;5000774;28;54572;-71
2023/01/24 08:37:33;;;;;;;;;38.25;28.00;;;;;6.06;100.00;103302.81;5012814;28;45209;-72
2023/01/24 08:39:58;;;;;;;;;32.75;29.50;;;;;6.06;100.00;103308.06;5008217;28;45730;-73
2023/01/24 08:42:24;;;;;;;;;41.00;33.00;;;;;6.05;100.00;103306.25;4999454;28;45774;-71
2023/01/24 08:44:50;;;;;;;;;38.50;29.50;;;;;6.05;100.00;103316.75;5005484;28;46017;-68
2023/01/24 08:47:16;;;;;;;;;28.75;22.00;;;;;6.05;100.00;103319.38;5009583;28;45557;-69
2023/01/24 08:49:41;;;;;;;;;35.00;30.00;;;;;6.07;100.00;103317.75;5008926;28;45432;-70
2023/01/24 08:52:07;;;;;;;;;36.25;25.50;;;;;6.09;100.00;103320.50;5011887;28;56516;-69
2023/01/24 08:54:32;;;;;;;;;34.25;24.00;;;;;6.12;100.00;103324.22;5009673;28;45629;-70
2023/01/24 08:56:58;;;;;;;;;32.00;24.50;;;;;6.13;100.00;103325.16;5009968;28;45377;-70
2023/01/24 08:59:24;;;;;;;;;29.25;23.75;;;;;6.14;100.00;103324.34;5004509;28;46475;-69
2023/01/24 09:01:49;;;;;;;;;34.50;23.75;;;;;6.17;100.00;103338.56;5009895;28;51628;-70
2023/01/24 09:04:14;;;;;;;;;33.75;23.25;;;;;6.17;100.00;103330.69;5012178;28;54567;-71
2023/01/24 09:06:40;;;;;;;;;35.75;26.25;;;;;6.18;100.00;103337.78;5005149;28;45643;-69
2023/01/24 09:09:05;;;;;;;;;31.75;18.75;;;;;6.19;100.00;103338.69;5012512;28;45682;-70
2023/01/24 09:11:31;;;;;;;;;39.00;30.75;;;;;6.20;100.00;103341.41;5001810;28;57335;-69
2023/01/24 09:13:57;;;;;;;;;37.75;25.75;;;;;6.24;100.00;103345.16;5011667;28;45560;-69
2023/01/24 09:16:22;;;;;;;;;39.75;25.75;;;;;6.26;100.00;103328.72;5012177;28;45315;-71
2023/01/24 09:18:50;;;;;;;;;35.50;27.50;;;;;6.27;100.00;103330.53;5011917;28;46782;-70
2023/01/24 09:21:16;;;;;;;;;40.50;29.00;;;;;6.32;100.00;103335.19;5006387;28;45466;-69
2023/01/24 09:23:42;;;;;;;;;39.50;28.00;;;;;6.30;100.00;103325.50;5010889;28;45727;-70
2023/01/24 09:26:07;;;;;;;;;38.00;32.25;;;;;6.33;100.00;103329.13;5014145;28;45412;-69
2023/01/24 09:28:33;;;;;;;;;32.00;26.75;;;;;6.32;100.00;103330.84;5011121;28;58444;-70
2023/01/24 09:30:59;;;;;;;;;32.50;30.25;;;;;6.30;100.00;103333.38;5015205;28;45455;-69
2023/01/24 09:33:24;;;;;;;;;29.25;26.75;;;;;6.27;100.00;103327.00;5004869;28;45522;-69
2023/01/24 09:35:54;;;;;;;;;33.00;25.50;;;;;6.30;100.00;103336.00;5003145;28;49104;-69
2023/01/24 09:38:21;;;;;;;;;32.50;27.75;;;;;6.28;100.00;103335.00;5009818;28;46978;-69
2023/01/24 09:40:54;;;;;;;;;29.25;24.75;;;;;6.33;100.00;103337.00;5001818;28;45456;-69
2023/01/24 09:43:38;;;;;;;;;30.75;24.50;;;;;6.37;100.00;103349.53;5019775;28;45299;-71
2023/01/24 09:46:16;;;;;;;;;37.00;29.50;;;;;6.37;100.00;103339.94;5010312;28;45497;-69
2023/01/24 09:48:42;;;;;;;;;31.50;26.25;;;;;6.39;100.00;103337.41;5009269;28;46343;-71
2023/01/24 09:51:15;;;;;;;;;33.25;27.75;;;;;6.42;100.00;103348.13;5015679;28;46771;-68
2023/01/24 09:53:46;;;;;;;;;33.00;26.75;;;;;6.42;100.00;103351.66;5018615;28;45475;-70
2023/01/24 09:56:33;;;;;;;;;46.25;31.75;;;;;6.44;100.00;103346.50;5016069;28;45553;-69
2023/01/24 09:59:09;;;;;;;;;33.25;30.50;;;;;6.42;100.00;103346.41;5006873;28;46875;-71
2023/01/24 10:01:35;;;;;;;;;42.50;29.00;;;;;6.46;100.00;103348.44;5016552;28;45371;-70
2023/01/24 10:04:00;;;;;;;;;31.25;26.75;;;;;6.50;100.00;103349.59;4997917;28;45481;-70
2023/01/24 10:06:27;;;;;;;;;37.50;26.75;;;;;6.52;100.00;103355.84;5016080;28;45251;-70
2023/01/24 10:09:18;;;;;;;;;38.25;26.25;;;;;6.53;100.00;103352.41;5007666;28;46671;-73
2023/01/24 10:12:15;;;;;;;;;33.25;27.25;;;;;6.60;100.00;103362.50;5016805;28;45454;-70
2023/01/24 10:14:54;;;;;;;;;48.75;25.00;;;;;6.62;100.00;103360.00;4992486;28;45607;-71
2023/01/24 10:17:44;;;;;;;;;33.50;26.00;;;;;6.64;100.00;103364.53;5012573;28;45309;-70
2023/01/24 10:20:16;;;;;;;;;30.25;23.75;;;;;6.63;100.00;103365.34;5011259;28;46644;-70
2023/01/24 10:23:12;;;;;;;;;32.25;30.75;;;;;6.64;100.00;103356.66;5002133;28;45250;-70
2023/01/24 10:25:57;;;;;;;;;29.50;23.50;;;;;6.67;100.00;103362.13;5018191;28;45317;-73
2023/01/24 10:28:31;;;;;;;;;38.50;28.25;;;;;6.67;100.00;103354.25;5009613;28;45412;-70
2023/01/24 10:31:16;;;;;;;;;31.50;27.75;;;;;6.72;100.00;103359.81;5017704;28;45736;-71
2023/01/24 10:33:47;;;;;;;;;32.00;29.25;;;;;6.74;100.00;103356.47;5011421;28;45674;-70
2023/01/24 10:36:50;;;;;;;;;39.50;25.25;;;;;6.76;100.00;103357.47;5007132;28;45483;-72
2023/01/24 10:39:15;;;;;;;;;43.50;22.50;;;;;6.77;100.00;103355.78;5012584;28;45438;-74
2023/01/24 10:41:41;;;;;;;;;34.00;23.00;;;;;6.75;100.00;103345.16;5006169;28;59393;-73
2023/01/24 10:44:12;;;;;;;;;34.75;23.50;;;;;6.77;100.00;103358.41;5015341;28;46129;-71
2023/01/24 10:47:13;;;;;;;;;40.50;28.25;;;;;6.78;100.00;103354.97;5010190;28;45322;-72
2023/01/24 10:49:41;;;;;;;;;33.75;30.25;;;;;6.81;100.00;103340.31;4992406;28;45393;-73
2023/01/24 10:52:07;;;;;;;;;38.25;27.25;;;;;6.85;100.00;103343.16;5009358;28;46532;-74
2023/01/24 10:54:41;;;;;;;;;40.25;23.25;;;;;6.85;100.00;103336.19;5016487;28;45390;-72
2023/01/24 10:57:31;;;;;;;;;35.00;29.75;;;;;6.88;100.00;103323.25;5032479;28;45328;-72
2023/01/24 11:00:03;;;;;;;;;31.25;23.75;;;;;6.92;100.00;103329.59;5012657;28;45205;-71
2023/01/24 11:02:30;;;;;;;;;36.25;25.75;;;;;6.92;100.00;103326.97;5007067;28;45942;-73
2023/01/24 11:05:00;;;;;;;;;36.50;25.75;;;;;6.95;100.00;103321.94;5010796;28;45485;-72
2023/01/24 11:07:33;;;;;;;;;42.00;26.25;;;;;6.95;100.00;103322.84;5017563;28;45278;-72
2023/01/24 11:10:01;;;;;;;;;34.75;26.00;;;;;6.98;100.00;103322.16;5015410;28;45599;-72
2023/01/24 11:12:27;;;;;;;;;34.75;27.75;;;;;7.01;100.00;103322.34;5014422;28;46448;-75
2023/01/24 11:14:53;;;;;;;;;34.50;23.75;;;;;7.03;100.00;103319.00;5014027;28;45606;-74
2023/01/24 11:17:31;;;;;;;;;33.75;25.50;;;;;7.07;100.00;103325.34;5006074;28;54021;-73
2023/01/24 11:20:18;;;;;;;;;36.75;30.00;;;;;7.11;100.00;103323.84;5017014;28;45463;-72
2023/01/24 11:22:49;;;;;;;;;23.25;20.25;;;;;7.10;100.00;103309.81;5011473;28;45784;-73
2023/01/24 11:25:15;;;;;;;;;31.25;26.50;;;;;7.12;100.00;103302.00;5014615;28;45457;-71
2023/01/24 11:27:49;;;;;;;;;46.00;22.50;;;;;7.14;100.00;103297.75;5008487;28;45293;-72
2023/01/24 11:30:20;;;;;;;;;33.25;24.50;;;;;7.12;100.00;103300.28;5016398;28;45183;-72
2023/01/24 11:33:03;;;;;;;;;27.75;19.75;;;;;7.16;100.00;103301.41;5010711;28;45762;-72
2023/01/24 11:35:38;;;;;;;;;23.50;17.00;;;;;7.15;100.00;103300.50;5015166;28;46790;-71
2023/01/24 11:38:21;;;;;;;;;28.75;25.75;;;;;7.15;100.00;103292.63;5009790;28;45557;-73
2023/01/24 11:40:52;;;;;;;;;26.75;24.75;;;;;7.18;100.00;103290.19;5012603;28;45427;-73
2023/01/24 11:43:48;;;;;;;;;36.25;24.00;;;;;7.19;100.00;103294.66;5016963;28;46744;-74
2023/01/24 11:46:16;;;;;;;;;32.50;24.00;;;;;7.22;100.00;103293.91;5014331;28;45285;-69
2023/01/24 11:49:04;;;;;;;;;33.75;20.25;;;;;7.23;100.00;103294.00;5016311;28;45490;-70
2023/01/24 11:51:38;;;;;;;;;23.75;20.25;;;;;7.26;100.00;103286.34;5026254;28;45528;-70
2023/01/24 11:54:37;;;;;;;;;26.25;18.50;;;;;7.29;100.00;103288.22;5016154;28;46193;-70
2023/01/24 11:57:26;;;;;;;;;39.00;25.00;;;;;7.28;100.00;103283.78;5025162;28;45487;-71